Time;durP1;ratioP1;P1;durP2;ratioP2;P2;SDS_P1;SDS_P2;PMS_P1;PMS_P2;Temp;Humidity;BMP_temperature;BMP_pressure;BME280_temperature;BME280_humidity;BME280_pressure;Samples;Min_cycle;Max_cycle;Signal;HPM_P1;HPM_P2
2024/04/08 00:02:24;;;;;;;4.25;1.98;;;;;;;;;;6333281;23;20152;-89
2024/04/08 00:04:55;;;;;;;4.50;1.90;;;;;;;;;;6312222;23;20009;-90
2024/04/08 00:07:27;;;;;;;4.50;1.92;;;;;;;;;;6310488;23;20075;-91
2024/04/08 00:09:58;;;;;;;3.08;1.70;;;;;;;;;;6308406;23;20025;-91
2024/04/08 00:12:31;;;;;;;4.43;2.00;;;;;;;;;;6331512;23;20036;-89
2024/04/08 00:15:05;;;;;;;5.57;1.85;;;;;;;;;;6334754;23;20021;-90
2024/04/08 00:17:37;;;;;;;;;;;;;;;;;;6358521;23;20064;-90
2024/04/08 00:20:09;;;;;;;4.00;1.70;;;;;;;;;;6302011;23;19971;-89
2024/04/08 00:22:44;;;;;;;3.42;1.83;;;;;;;;;;6324634;23;20076;-89
2024/04/08 00:25:15;;;;;;;3.72;2.00;;;;;;;;;;6326549;23;20044;-90
2024/04/08 00:27:47;;;;;;;5.68;2.30;;;;;;;;;;6329651;23;20029;-90
2024/04/08 00:30:22;;;;;;;4.35;2.28;;;;;;;;;;6329946;23;20037;-90
2024/04/08 00:32:55;;;;;;;4.20;2.10;;;;;;;;;;6307474;23;20009;-88
2024/04/08 00:35:26;;;;;;;3.55;1.92;;;;;;;;;;6334213;23;20024;-90
2024/04/08 00:37:58;;;;;;;5.18;2.55;;;;;;;;;;6309581;23;20025;-90
2024/04/08 00:40:35;;;;;;;4.30;2.17;;;;;;;;;;6356994;23;20036;-90
2024/04/08 00:43:12;;;;;;;4.15;2.10;;;;;;;;;;6358666;23;20044;-89
2024/04/08 00:45:45;;;;;;;4.32;2.30;;;;;;;;;;6332262;23;20110;-89
2024/04/08 00:48:20;;;;;;;5.28;2.05;;;;;;;;;;6328895;23;20046;-88
2024/04/08 00:50:55;;;;;;;7.53;2.33;;;;;;;;;;6306664;23;20021;-89
2024/04/08 00:53:27;;;;;;;3.80;2.28;;;;;;;;;;6303353;23;20108;-88
2024/04/08 00:55:58;;;;;;;4.30;2.00;;;;;;;;;;6307161;23;20021;-88
2024/04/08 00:58:31;;;;;;;4.10;2.15;;;;;;;;;;6328194;23;20017;-89
2024/04/08 01:01:07;;;;;;;4.65;2.33;;;;;;;;;;6322671;23;20048;-88
2024/04/08 01:03:39;;;;;;;4.68;2.17;;;;;;;;;;6326378;23;20037;-89
2024/04/08 01:06:11;;;;;;;5.25;2.30;;;;;;;;;;6300111;23;20026;-87
2024/04/08 01:08:43;;;;;;;6.00;2.80;;;;;;;;;;6350937;23;20422;-88
2024/04/08 01:11:15;;;;;;;3.50;2.30;;;;;;;;;;6326081;23;20025;-89
2024/04/08 01:13:46;;;;;;;4.40;2.30;;;;;;;;;;6303626;23;20017;-89
2024/04/08 01:16:19;;;;;;;5.35;1.98;;;;;;;;;;6327353;23;20045;-88
2024/04/08 01:18:51;;;;;;;4.95;1.90;;;;;;;;;;6324880;23;20037;-89
2024/04/08 01:21:22;;;;;;;5.55;2.08;;;;;;;;;;6326027;23;20033;-89
2024/04/08 01:23:56;;;;;;;6.93;2.67;;;;;;;;;;6325474;23;20030;-87
2024/04/08 01:26:27;;;;;;;3.40;1.75;;;;;;;;;;6300921;23;20029;-87
2024/04/08 01:28:59;;;;;;;4.65;1.80;;;;;;;;;;6300548;23;20041;-87
2024/04/08 01:31:30;;;;;;;3.70;1.40;;;;;;;;;;6325252;23;20026;-89
2024/04/08 01:34:02;;;;;;;3.67;2.15;;;;;;;;;;6324994;23;20028;-87
2024/04/08 01:36:35;;;;;;;5.32;2.15;;;;;;;;;;6319172;23;20018;-86
2024/04/08 01:39:09;;;;;;;5.32;2.50;;;;;;;;;;6349397;23;20032;-86
2024/04/08 01:41:42;;;;;;;3.45;1.73;;;;;;;;;;6304155;23;20021;-87
2024/04/08 01:44:17;;;;;;;5.97;1.90;;;;;;;;;;6354011;23;20045;-87
2024/04/08 01:46:49;;;;;;;3.33;1.73;;;;;;;;;;6352697;23;20045;-87
2024/04/08 01:49:26;;;;;;;3.28;1.95;;;;;;;;;;6324151;23;20104;-87
2024/04/08 01:52:02;;;;;;;5.35;2.05;;;;;;;;;;6323164;23;20026;-88
2024/04/08 01:54:34;;;;;;;2.80;1.88;;;;;;;;;;6346883;23;20048;-87
2024/04/08 01:57:07;;;;;;;4.60;2.15;;;;;;;;;;6310005;23;20025;-88
2024/04/08 01:59:37;;;;;;;5.53;2.40;;;;;;;;;;6304561;23;20420;-87
2024/04/08 02:02:09;;;;;;;3.85;2.30;;;;;;;;;;6379749;23;20029;-88
2024/04/08 02:04:40;;;;;;;3.60;2.15;;;;;;;;;;6332677;23;20021;-88
2024/04/08 02:07:12;;;;;;;5.60;2.40;;;;;;;;;;6358181;23;20032;-87
2024/04/08 02:09:44;;;;;;;4.93;2.40;;;;;;;;;;6306891;23;20048;-89
2024/04/08 02:12:16;;;;;;;4.35;2.53;;;;;;;;;;6326775;23;20021;-87
2024/04/08 02:14:47;;;;;;;2.60;1.70;;;;;;;;;;6351454;23;20821;-87
2024/04/08 02:17:21;;;;;;;6.20;2.58;;;;;;;;;;6303019;23;20030;-89
2024/04/08 02:19:52;;;;;;;6.65;2.83;;;;;;;;;;6331880;23;20029;-88
2024/04/08 02:22:24;;;;;;;3.97;2.60;;;;;;;;;;6330083;23;20033;-88
2024/04/08 02:24:56;;;;;;;5.40;2.72;;;;;;;;;;6315196;23;20009;-89
2024/04/08 02:27:28;;;;;;;3.67;2.55;;;;;;;;;;6314614;23;20021;-89
2024/04/08 02:30:00;;;;;;;4.65;2.83;;;;;;;;;;6361042;23;20036;-90
2024/04/08 02:32:34;;;;;;;5.53;2.75;;;;;;;;;;6336426;23;20022;-88
2024/04/08 02:35:07;;;;;;;7.85;2.90;;;;;;;;;;6310370;23;20032;-87
2024/04/08 02:37:43;;;;;;;6.72;2.97;;;;;;;;;;6308017;23;20029;-89
2024/04/08 02:40:15;;;;;;;4.50;2.90;;;;;;;;;;6306701;23;20026;-88
2024/04/08 02:42:47;;;;;;;4.97;2.90;;;;;;;;;;6332630;23;20202;-88
2024/04/08 02:45:18;;;;;;;7.60;3.10;;;;;;;;;;6332710;23;20266;-88
2024/04/08 02:47:50;;;;;;;6.53;2.85;;;;;;;;;;6330754;23;20025;-88
2024/04/08 02:50:21;;;;;;;4.53;3.00;;;;;;;;;;6329177;23;20045;-88
2024/04/08 02:52:53;;;;;;;4.95;2.95;;;;;;;;;;6327569;23;20014;-89
2024/04/08 02:55:30;;;;;;;5.50;3.10;;;;;;;;;;6303145;23;20089;-88
2024/04/08 02:58:02;;;;;;;2.85;2.00;;;;;;;;;;6324056;23;20029;-88
2024/04/08 03:00:36;;;;;;;6.05;2.83;;;;;;;;;;6299199;23;20061;-89
2024/04/08 03:03:11;;;;;;;3.92;2.90;;;;;;;;;;6305604;23;20026;-87
2024/04/08 03:05:44;;;;;;;5.00;2.88;;;;;;;;;;6329366;23;20017;-88
2024/04/08 03:08:16;;;;;;;6.65;3.25;;;;;;;;;;6355639;23;20037;-87
2024/04/08 03:10:56;;;;;;;5.20;2.83;;;;;;;;;;6331611;23;20029;-88
2024/04/08 03:13:29;;;;;;;4.50;2.35;;;;;;;;;;6308323;23;20032;-87
2024/04/08 03:16:01;;;;;;;3.20;2.47;;;;;;;;;;6328463;23;20017;-88
2024/04/08 03:18:34;;;;;;;5.13;3.00;;;;;;;;;;6309936;23;20014;-88
2024/04/08 03:21:05;;;;;;;5.60;3.50;;;;;;;;;;6308570;23;20021;-90
2024/04/08 03:23:38;;;;;;;7.25;2.90;;;;;;;;;;6307462;23;20032;-90
2024/04/08 03:26:12;;;;;;;4.85;3.10;;;;;;;;;;6305691;23;20040;-88
2024/04/08 03:28:44;;;;;;;5.15;3.22;;;;;;;;;;6333322;23;20060;-88
2024/04/08 03:31:15;;;;;;;3.92;2.83;;;;;;;;;;6331986;23;20112;-87
2024/04/08 03:33:50;;;;;;;5.57;2.90;;;;;;;;;;6331021;23;20033;-87
2024/04/08 03:36:21;;;;;;;;;;;;;;;;;;6306466;23;20029;-89
2024/04/08 03:38:53;;;;;;;3.97;2.90;;;;;;;;;;6332562;23;19921;-88
2024/04/08 03:41:32;;;;;;;4.75;2.75;;;;;;;;;;6307436;23;20021;-89
2024/04/08 03:44:04;;;;;;;4.80;3.03;;;;;;;;;;6325755;23;20105;-87
2024/04/08 03:46:37;;;;;;;5.30;2.92;;;;;;;;;;6325528;23;20026;-87
2024/04/08 03:49:08;;;;;;;4.15;2.50;;;;;;;;;;6300439;23;20080;-88
2024/04/08 03:51:40;;;;;;;3.95;2.80;;;;;;;;;;6349883;23;20115;-88
2024/04/08 03:54:12;;;;;;;3.15;2.47;;;;;;;;;;6301875;23;20026;-88
2024/04/08 03:56:47;;;;;;;4.40;2.67;;;;;;;;;;6356419;23;20029;-88
2024/04/08 03:59:22;;;;;;;4.38;3.00;;;;;;;;;;6302241;23;20017;-90
2024/04/08 04:01:54;;;;;;;5.75;2.60;;;;;;;;;;6333619;23;20022;-88
2024/04/08 04:04:26;;;;;;;4.70;2.72;;;;;;;;;;6313872;23;20041;-89
2024/04/08 04:06:57;;;;;;;4.53;2.38;;;;;;;;;;6311976;23;20045;-88
2024/04/08 04:09:29;;;;;;;6.05;2.72;;;;;;;;;;6337873;23;20296;-89
2024/04/08 04:12:06;;;;;;;7.20;3.15;;;;;;;;;;6338151;23;20022;-89
2024/04/08 04:14:41;;;;;;;6.18;3.03;;;;;;;;;;6311330;23;20104;-89
2024/04/08 04:17:12;;;;;;;3.70;2.42;;;;;;;;;;6313249;23;20013;-87
2024/04/08 04:19:45;;;;;;;6.22;3.30;;;;;;;;;;6338275;23;20070;-89
2024/04/08 04:22:16;;;;;;;6.32;2.95;;;;;;;;;;6313531;23;20021;-90
2024/04/08 04:24:48;;;;;;;5.13;3.00;;;;;;;;;;6357634;23;20031;-88
2024/04/08 04:27:21;;;;;;;5.22;2.85;;;;;;;;;;6356004;23;20056;-90
2024/04/08 04:29:53;;;;;;;4.05;3.15;;;;;;;;;;6329946;23;20021;-89
2024/04/08 04:32:23;;;;;;;5.85;2.88;;;;;;;;;;6355677;23;20029;-88
2024/04/08 04:34:56;;;;;;;4.63;3.08;;;;;;;;;;6332677;23;20022;-88
2024/04/08 04:37:27;;;;;;;6.78;3.45;;;;;;;;;;6310020;23;20044;-88
2024/04/08 04:39:59;;;;;;;4.63;3.05;;;;;;;;;;6360821;23;20029;-88
2024/04/08 04:42:31;;;;;;;5.35;3.65;;;;;;;;;;6229978;23;20037;-89
2024/04/08 04:45:07;;;;;;;5.32;3.15;;;;;;;;;;6387058;23;20005;-91
2024/04/08 04:47:40;;;;;;;8.23;3.67;;;;;;;;;;6343078;23;20009;-90
2024/04/08 04:50:12;;;;;;;3.47;2.72;;;;;;;;;;6342063;23;20088;-90
2024/04/08 04:52:44;;;;;;;5.25;3.40;;;;;;;;;;6338729;23;20025;-89
2024/04/08 04:55:16;;;;;;;5.05;3.45;;;;;;;;;;6366507;23;20105;-89
2024/04/08 04:57:50;;;;;;;;;;;;;;;;;;6365842;23;20017;-90
2024/04/08 05:00:26;;;;;;;6.70;3.17;;;;;;;;;;6340507;23;19920;-89
2024/04/08 05:02:58;;;;;;;6.38;3.33;;;;;;;;;;6339751;23;20036;-89
2024/04/08 05:05:29;;;;;;;4.93;3.58;;;;;;;;;;6357108;23;20037;-90
2024/04/08 05:08:01;;;;;;;4.85;3.40;;;;;;;;;;6355069;23;20045;-87
2024/04/08 05:10:34;;;;;;;4.45;3.38;;;;;;;;;;6354512;23;20013;-90
2024/04/08 05:13:05;;;;;;;4.57;3.22;;;;;;;;;;6332482;23;20017;-87
2024/04/08 05:15:38;;;;;;;4.28;2.95;;;;;;;;;;6331492;23;20013;-87
2024/04/08 05:18:11;;;;;;;5.82;3.55;;;;;;;;;;6355066;23;20029;-88
2024/04/08 05:20:43;;;;;;;5.43;3.58;;;;;;;;;;6378134;23;20005;-89
2024/04/08 05:23:21;;;;;;;4.00;3.42;;;;;;;;;;6329249;23;20021;-88
2024/04/08 05:25:53;;;;;;;5.38;3.55;;;;;;;;;;6332531;23;20020;-90
2024/04/08 05:28:37;;;;;;;8.27;3.70;;;;;;;;;;6383998;23;20870;-91
2024/04/08 05:31:13;;;;;;;5.60;4.30;;;;;;;;;;6333887;23;20024;-90
2024/04/08 05:33:45;;;;;;;7.53;3.88;;;;;;;;;;6338753;23;20051;-89
2024/04/08 05:36:27;;;;;;;5.45;4.10;;;;;;;;;;6327767;23;20083;-92
2024/04/08 05:38:59;;;;;;;8.00;4.75;;;;;;;;;;6331930;23;20036;-90
2024/04/08 05:41:33;;;;;;;5.97;4.07;;;;;;;;;;6365488;23;20025;-91
2024/04/08 05:44:05;;;;;;;6.13;3.75;;;;;;;;;;6343779;23;20037;-90
2024/04/08 05:46:39;;;;;;;6.63;3.83;;;;;;;;;;6367797;23;20013;-90
2024/04/08 05:49:11;;;;;;;;;;;;;;;;;;6369402;23;20025;-90
2024/04/08 05:51:51;;;;;;;6.00;4.80;;;;;;;;;;6381416;23;19920;-85
2024/04/08 05:54:23;;;;;;;6.20;3.83;;;;;;;;;;6366593;23;20957;-85
2024/04/08 06:03:28;;;;;;;6.78;4.75;;;;;;;;;;6348970;23;20032;-83
2024/04/08 06:05:59;;;;;;;7.30;4.80;;;;;;;;;;6344386;23;20104;-84
2024/04/08 06:08:34;;;;;;;5.10;4.28;;;;;;;;;;6341087;23;20041;-84
2024/04/08 06:11:05;;;;;;;7.80;4.30;;;;;;;;;;6364614;23;20033;-84
2024/04/08 06:13:37;;;;;;;6.30;4.40;;;;;;;;;;6363276;23;20080;-84
2024/04/08 06:16:10;;;;;;;7.25;4.88;;;;;;;;;;6365906;23;20013;-83
2024/04/08 06:18:55;;;;;;;9.63;5.07;;;;;;;;;;6339955;23;20025;-83
2024/04/08 06:21:30;;;;;;;10.52;5.32;;;;;;;;;;6363259;23;20076;-83
2024/04/08 06:24:01;;;;;;;11.55;5.30;;;;;;;;;;6364427;23;20068;-86
2024/04/08 06:26:33;;;;;;;6.07;4.22;;;;;;;;;;6350816;23;20096;-83
2024/04/08 06:29:10;;;;;;;9.65;4.22;;;;;;;;;;6327423;23;20667;-85
2024/04/08 06:31:43;;;;;;;5.22;3.78;;;;;;;;;;6326435;23;20064;-82
2024/04/08 06:34:16;;;;;;;10.27;4.18;;;;;;;;;;6346818;23;20029;-82
2024/04/08 06:36:49;;;;;;;5.25;4.03;;;;;;;;;;6382134;23;20021;-83
2024/04/08 06:39:22;;;;;;;5.88;3.60;;;;;;;;;;6323783;23;20025;-82
2024/04/08 06:42:00;;;;;;;7.57;4.47;;;;;;;;;;6319058;23;20025;-82
2024/04/08 06:44:33;;;;;;;8.63;4.35;;;;;;;;;;6317185;23;20036;-84
2024/04/08 06:47:05;;;;;;;7.32;4.22;;;;;;;;;;6338847;23;20310;-82
2024/04/08 06:49:43;;;;;;;7.05;3.63;;;;;;;;;;6336671;23;20453;-79
2024/04/08 06:52:18;;;;;;;6.82;3.97;;;;;;;;;;6311376;23;20021;-81
2024/04/08 06:54:49;;;;;;;6.28;3.75;;;;;;;;;;6336965;23;20032;-84
2024/04/08 06:57:21;;;;;;;8.70;3.78;;;;;;;;;;6276989;23;20470;-82
2024/04/08 06:59:58;;;;;;;6.63;3.40;;;;;;;;;;6308984;23;20028;-85
2024/04/08 07:02:34;;;;;;;4.40;2.95;;;;;;;;;;6373695;23;20102;-84
2024/04/08 07:05:06;;;;;;;6.07;3.30;;;;;;;;;;6339152;23;20032;-84
2024/04/08 07:07:43;;;;;;;5.43;3.63;;;;;;;;;;6317202;23;20021;-82
2024/04/08 07:10:16;;;;;;;6.18;3.92;;;;;;;;;;6338885;23;20028;-82
2024/04/08 07:13:00;;;;;;;7.53;3.80;;;;;;;;;;6316482;23;20742;-83
2024/04/08 07:15:37;;;;;;;4.35;3.33;;;;;;;;;;6308283;23;20778;-84
2024/04/08 07:18:13;;;;;;;4.95;2.55;;;;;;;;;;6340070;23;20910;-83
2024/04/08 07:20:52;;;;;;;6.35;3.20;;;;;;;;;;6316875;23;20027;-83
2024/04/08 07:24:03;;;;;;;5.55;3.08;;;;;;;;;;6372518;23;20330;-85
2024/04/08 07:26:36;;;;;;;4.43;2.55;;;;;;;;;;6312959;23;20400;-85
2024/04/08 07:29:09;;;;;;;5.50;2.65;;;;;;;;;;6309139;23;20041;-83
2024/04/08 07:31:44;;;;;;;6.65;2.85;;;;;;;;;;6335527;23;20033;-82
2024/04/08 07:34:19;;;;;;;7.82;3.03;;;;;;;;;;6363840;23;20100;-83
2024/04/08 07:36:54;;;;;;;4.70;2.97;;;;;;;;;;6315069;23;20029;-82
2024/04/08 07:39:26;;;;;;;5.90;3.15;;;;;;;;;;6339747;23;20044;-83
2024/04/08 07:41:57;;;;;;;4.32;2.45;;;;;;;;;;6338197;23;20092;-83
2024/04/08 07:44:29;;;;;;;4.38;2.22;;;;;;;;;;6338860;23;20028;-83
2024/04/08 07:47:01;;;;;;;3.92;2.50;;;;;;;;;;6339959;23;20515;-82
2024/04/08 07:49:40;;;;;;;7.47;2.88;;;;;;;;;;6348421;23;20128;-78
2024/04/08 07:52:13;;;;;;;3.17;2.25;;;;;;;;;;6345684;23;20411;-80
2024/04/08 07:54:46;;;;;;;7.38;2.60;;;;;;;;;;6371776;23;20119;-80
2024/04/08 07:57:18;;;;;;;5.25;2.35;;;;;;;;;;6351938;23;20028;-80
2024/04/08 07:59:56;;;;;;;5.13;2.50;;;;;;;;;;6338908;23;20025;-81
2024/04/08 08:02:31;;;;;;;3.95;2.05;;;;;;;;;;6307953;23;20021;-81
2024/04/08 08:05:03;;;;;;;4.28;2.58;;;;;;;;;;6339982;23;20022;-81
2024/04/08 08:07:48;;;;;;;5.55;2.22;;;;;;;;;;6340303;23;20017;-81
2024/04/08 08:10:23;;;;;;;5.03;2.20;;;;;;;;;;6282240;23;20068;-81
2024/04/08 08:13:22;;;;;;;5.88;2.38;;;;;;;;;;6334564;23;20028;-81
2024/04/08 08:15:59;;;;;;;4.45;2.38;;;;;;;;;;6331827;23;20025;-81
2024/04/08 08:18:34;;;;;;;4.78;2.20;;;;;;;;;;6307051;23;20108;-80
2024/04/08 08:21:08;;;;;;;4.25;2.70;;;;;;;;;;6308337;23;20334;-81
2024/04/08 08:23:42;;;;;;;6.03;2.50;;;;;;;;;;6306742;23;20021;-81
2024/04/08 08:26:22;;;;;;;4.22;2.17;;;;;;;;;;6331652;23;20108;-81
2024/04/08 08:29:10;;;;;;;3.88;2.10;;;;;;;;;;6332832;23;20026;-80
2024/04/08 08:31:45;;;;;;;3.60;2.00;;;;;;;;;;6283117;23;20057;-80
2024/04/08 08:34:19;;;;;;;4.55;2.03;;;;;;;;;;6310204;23;20029;-80
2024/04/08 08:36:57;;;;;;;4.13;2.47;;;;;;;;;;6283256;23;20029;-81
2024/04/08 08:39:37;;;;;;;3.20;2.23;;;;;;;;;;6307462;23;20132;-81
2024/04/08 08:42:18;;;;;;;3.47;2.17;;;;;;;;;;6308606;23;20029;-81
2024/04/08 08:44:53;;;;;;;4.35;1.95;;;;;;;;;;6307544;23;20029;-82
2024/04/08 08:47:25;;;;;;;5.30;2.70;;;;;;;;;;6330541;23;20026;-81
2024/04/08 08:49:57;;;;;;;7.50;2.65;;;;;;;;;;6300394;23;20096;-82
2024/04/08 08:52:30;;;;;;;11.30;2.50;;;;;;;;;;6330788;23;20041;-81
2024/04/08 08:55:03;;;;;;;4.53;2.17;;;;;;;;;;6282455;23;20032;-81
2024/04/08 08:57:37;;;;;;;4.25;2.42;;;;;;;;;;6331312;23;20405;-81
2024/04/08 09:00:15;;;;;;;4.80;2.55;;;;;;;;;;6334606;23;20365;-81
2024/04/08 09:02:51;;;;;;;3.75;2.15;;;;;;;;;;6332817;23;20051;-80
2024/04/08 09:05:24;;;;;;;5.80;2.50;;;;;;;;;;6311810;23;21197;-80
2024/04/08 09:07:56;;;;;;;5.00;1.95;;;;;;;;;;6311303;23;20024;-81
2024/04/08 09:10:38;;;;;;;4.90;2.53;;;;;;;;;;6336509;23;20024;-81
2024/04/08 09:13:19;;;;;;;4.00;2.28;;;;;;;;;;6359022;23;20112;-81
2024/04/08 09:15:55;;;;;;;6.38;2.70;;;;;;;;;;6361622;23;20031;-81
2024/04/08 09:18:30;;;;;;;4.30;1.90;;;;;;;;;;6337250;23;20487;-81
2024/04/08 09:21:03;;;;;;;5.13;2.05;;;;;;;;;;6334900;23;20091;-81
2024/04/08 09:23:41;;;;;;;7.80;2.38;;;;;;;;;;6322794;23;20100;-81
2024/04/08 09:26:18;;;;;;;3.75;1.80;;;;;;;;;;6333149;23;20095;-81
2024/04/08 09:28:49;;;;;;;3.85;2.03;;;;;;;;;;6256800;23;20356;-81
2024/04/08 09:31:21;;;;;;;4.68;2.15;;;;;;;;;;6306796;23;20131;-81
2024/04/08 09:33:55;;;;;;;6.72;2.17;;;;;;;;;;6363106;23;20047;-81
2024/04/08 09:36:28;;;;;;;3.10;2.20;;;;;;;;;;6362421;23;20036;-81
2024/04/08 09:39:01;;;;;;;4.22;1.95;;;;;;;;;;6359364;23;20025;-81
2024/04/08 09:41:38;;;;;;;5.65;1.95;;;;;;;;;;6337784;23;20021;-81
2024/04/08 09:44:11;;;;;;;4.13;1.80;;;;;;;;;;6360252;23;20096;-82
2024/04/08 09:46:43;;;;;;;4.90;1.85;;;;;;;;;;6361448;23;20139;-82
2024/04/08 09:49:17;;;;;;;4.05;1.92;;;;;;;;;;6335266;23;20067;-82
2024/04/08 09:51:50;;;;;;;4.70;2.15;;;;;;;;;;6334272;23;20021;-82
2024/04/08 09:54:22;;;;;;;3.42;1.75;;;;;;;;;;6311425;23;20025;-81
2024/04/08 09:57:01;;;;;;;4.55;2.13;;;;;;;;;;6360292;23;20107;-83
2024/04/08 09:59:34;;;;;;;3.40;1.90;;;;;;;;;;6375221;23;20021;-81
2024/04/08 10:02:14;;;;;;;3.25;1.90;;;;;;;;;;6366458;23;20400;-81
2024/04/08 10:04:49;;;;;;;4.63;2.15;;;;;;;;;;6337222;23;20049;-81
2024/04/08 10:07:25;;;;;;;7.38;1.95;;;;;;;;;;6331156;23;20064;-81
2024/04/08 10:10:02;;;;;;;6.15;2.22;;;;;;;;;;6358850;23;20021;-80
2024/04/08 10:12:35;;;;;;;4.88;1.88;;;;;;;;;;6363164;23;20021;-81
2024/04/08 10:15:07;;;;;;;3.33;1.70;;;;;;;;;;6382281;23;20035;-81
2024/04/08 10:17:41;;;;;;;4.28;1.77;;;;;;;;;;6388597;23;20048;-81
2024/04/08 10:20:12;;;;;;;;;;;;;;;;;;6338961;23;21179;-81
2024/04/08 10:22:44;;;;;;;6.22;2.25;;;;;;;;;;6381681;23;19912;-81
2024/04/08 10:25:35;;;;;;;13.23;3.47;;;;;;;;;;6364627;23;20020;-81
2024/04/08 10:28:09;;;;;;;5.18;1.77;;;;;;;;;;6388920;23;20065;-81
2024/04/08 10:30:42;;;;;;;3.78;1.80;;;;;;;;;;6387180;23;20044;-81
2024/04/08 10:33:14;;;;;;;4.88;2.22;;;;;;;;;;6386984;23;20025;-82
2024/04/08 10:35:46;;;;;;;5.05;1.90;;;;;;;;;;6386418;23;20036;-81
2024/04/08 10:38:20;;;;;;;5.78;1.90;;;;;;;;;;6336615;23;20036;-81
2024/04/08 10:41:12;;;;;;;5.73;2.57;;;;;;;;;;6356713;23;20031;-81
2024/04/08 10:43:46;;;;;;;3.65;1.80;;;;;;;;;;6363067;23;20029;-80
2024/04/08 10:46:18;;;;;;;5.50;2.07;;;;;;;;;;6384364;23;20028;-81
2024/04/08 10:48:50;;;;;;;3.63;1.73;;;;;;;;;;6361245;23;20017;-81
2024/04/08 10:51:24;;;;;;;4.70;1.70;;;;;;;;;;6387828;23;20025;-81
2024/04/08 10:53:59;;;;;;;4.82;1.80;;;;;;;;;;6338491;23;20080;-81
2024/04/08 10:56:30;;;;;;;3.20;1.90;;;;;;;;;;6363424;23;20025;-81
2024/04/08 10:59:04;;;;;;;5.03;1.98;;;;;;;;;;6339022;23;20021;-81
2024/04/08 11:01:37;;;;;;;6.65;2.15;;;;;;;;;;6362892;23;20073;-81
2024/04/08 11:04:09;;;;;;;3.95;1.83;;;;;;;;;;6339546;23;20049;-81
2024/04/08 11:06:40;;;;;;;3.10;1.70;;;;;;;;;;6388876;23;20324;-81
2024/04/08 11:09:13;;;;;;;5.07;1.95;;;;;;;;;;6390115;23;20035;-81
2024/04/08 11:11:44;;;;;;;3.80;2.10;;;;;;;;;;6392380;23;20289;-81
2024/04/08 11:14:18;;;;;;;4.85;2.25;;;;;;;;;;6368558;23;20015;-82
2024/04/08 11:16:51;;;;;;;5.53;2.03;;;;;;;;;;6388850;23;20019;-80
2024/04/08 11:19:34;;;;;;;4.47;2.10;;;;;;;;;;6377804;23;20021;-79
2024/04/08 11:22:09;;;;;;;4.32;1.90;;;;;;;;;;6349397;23;20052;-80
2024/04/08 11:24:41;;;;;;;3.75;2.08;;;;;;;;;;6372658;23;20025;-79
2024/04/08 11:27:13;;;;;;;3.78;1.90;;;;;;;;;;6344121;23;20025;-79
2024/04/08 11:29:46;;;;;;;4.30;1.90;;;;;;;;;;6362766;23;20017;-80
2024/04/08 11:32:19;;;;;;;6.10;2.30;;;;;;;;;;6362794;23;20025;-80
2024/04/08 11:34:52;;;;;;;4.10;2.45;;;;;;;;;;6341652;23;20782;-80
2024/04/08 11:37:25;;;;;;;5.43;1.98;;;;;;;;;;6367362;23;20043;-80
2024/04/08 11:39:57;;;;;;;3.08;1.73;;;;;;;;;;6363846;23;20021;-80
2024/04/08 11:42:30;;;;;;;7.13;2.20;;;;;;;;;;6345487;23;20024;-80
2024/04/08 11:45:06;;;;;;;4.80;2.47;;;;;;;;;;6366843;23;20100;-80
2024/04/08 11:47:37;;;;;;;3.17;2.00;;;;;;;;;;6341381;23;20462;-79
2024/04/08 11:50:16;;;;;;;8.30;2.65;;;;;;;;;;6341795;23;20021;-80
2024/04/08 11:52:47;;;;;;;6.43;2.55;;;;;;;;;;6339686;23;20065;-80
2024/04/08 11:55:18;;;;;;;4.85;2.20;;;;;;;;;;6364167;23;20031;-80
2024/04/08 11:57:49;;;;;;;4.10;2.30;;;;;;;;;;6367196;23;20025;-80
2024/04/08 12:00:23;;;;;;;6.80;2.60;;;;;;;;;;6366996;23;20041;-80
2024/04/08 12:02:55;;;;;;;6.97;2.85;;;;;;;;;;6345889;23;20027;-80
2024/04/08 12:05:30;;;;;;;5.25;2.88;;;;;;;;;;6366549;23;20045;-80
2024/04/08 12:08:02;;;;;;;6.00;2.35;;;;;;;;;;6339722;23;20036;-80
2024/04/08 12:10:35;;;;;;;6.13;2.33;;;;;;;;;;6362432;23;20044;-80
2024/04/08 12:13:14;;;;;;;6.23;2.23;;;;;;;;;;6363198;23;20029;-79
2024/04/08 12:15:47;;;;;;;5.38;2.70;;;;;;;;;;6363609;23;20036;-79
2024/04/08 12:18:19;;;;;;;6.00;2.28;;;;;;;;;;6365566;23;20016;-80
2024/04/08 12:20:50;;;;;;;5.25;2.78;;;;;;;;;;6338463;23;20024;-80
2024/04/08 12:23:21;;;;;;;6.18;2.70;;;;;;;;;;6337694;23;20087;-79
2024/04/08 12:25:58;;;;;;;3.90;2.28;;;;;;;;;;6337749;23;20072;-79
2024/04/08 12:28:30;;;;;;;8.30;2.85;;;;;;;;;;6333406;23;20035;-79
2024/04/08 12:31:03;;;;;;;4.57;2.53;;;;;;;;;;6311107;23;20029;-78
2024/04/08 12:33:35;;;;;;;4.93;2.55;;;;;;;;;;6358903;23;20147;-79
2024/04/08 12:36:06;;;;;;;5.30;2.50;;;;;;;;;;6338471;23;20104;-79
2024/04/08 12:38:38;;;;;;;4.90;2.90;;;;;;;;;;6338898;23;20123;-80
2024/04/08 12:41:09;;;;;;;5.18;2.40;;;;;;;;;;6363082;23;20373;-79
2024/04/08 12:43:44;;;;;;;7.82;2.33;;;;;;;;;;6336276;23;20023;-80
2024/04/08 12:46:16;;;;;;;6.78;2.63;;;;;;;;;;6358383;23;20051;-80
2024/04/08 12:48:49;;;;;;;7.03;2.38;;;;;;;;;;6361928;23;20095;-80
2024/04/08 12:51:20;;;;;;;4.60;2.63;;;;;;;;;;6362983;23;20024;-80
2024/04/08 12:53:53;;;;;;;4.15;2.70;;;;;;;;;;6335205;23;20028;-79
2024/04/08 12:56:24;;;;;;;6.70;2.75;;;;;;;;;;6361669;23;20056;-79
2024/04/08 12:58:56;;;;;;;5.65;2.38;;;;;;;;;;6353353;23;20021;-79
2024/04/08 13:01:30;;;;;;;4.78;2.17;;;;;;;;;;6337364;23;20032;-78
2024/04/08 13:05:22;;;;;;;4.50;2.50;;;;;;;;;;5713129;25;20383;-79
2024/04/08 13:07:54;;;;;;;4.97;2.80;;;;;;;;;;5673333;25;19998;-79
2024/04/08 13:10:28;;;;;;;7.15;2.80;;;;;;;;;;5663410;25;20443;-84
2024/04/08 13:13:07;;;;;;;9.15;2.90;;;;;;;;;;5631648;26;20001;-85
2024/04/08 13:16:02;;;;;;;6.72;2.75;;;;;;;;;;5649442;25;20005;-85
2024/04/08 13:18:43;;;;;;;5.22;2.22;;;;;;;;;;5618660;26;20002;-86
2024/04/08 13:21:26;;;;;;;7.78;2.40;;;;;;;;;;5641258;26;20009;-85
2024/04/08 13:23:59;;;;;;;10.23;3.15;;;;;;;;;;5655444;25;20022;-85
2024/04/08 13:26:36;;;;;;;5.72;2.45;;;;;;;;;;5684038;26;20515;-85
2024/04/08 13:29:10;;;;;;;6.28;2.55;;;;;;;;;;5662714;25;20378;-86
2024/04/08 13:31:45;;;;;;;5.13;2.38;;;;;;;;;;5662232;25;20021;-86
2024/04/08 13:34:17;;;;;;;4.47;2.60;;;;;;;;;;5640593;26;20006;-86
2024/04/08 13:36:55;;;;;;;8.90;3.03;;;;;;;;;;5681127;25;20078;-86
2024/04/08 13:39:31;;;;;;;5.40;2.78;;;;;;;;;;5678410;26;20444;-85
2024/04/08 13:42:06;;;;;;;6.30;2.63;;;;;;;;;;5654776;25;20055;-85
2024/04/08 13:44:39;;;;;;;4.50;2.78;;;;;;;;;;5604195;25;19999;-87
2024/04/08 13:47:14;;;;;;;8.32;2.88;;;;;;;;;;5680484;25;20002;-86
2024/04/08 13:49:46;;;;;;;6.05;2.45;;;;;;;;;;5676609;25;20014;-87
2024/04/08 13:52:24;;;;;;;4.10;2.20;;;;;;;;;;5648434;25;20424;-86
2024/04/08 13:54:56;;;;;;;7.57;2.95;;;;;;;;;;5684596;25;20018;-82
2024/04/08 13:57:35;;;;;;;7.97;3.33;;;;;;;;;;5684209;25;19995;-82
2024/04/08 14:00:11;;;;;;;4.88;2.85;;;;;;;;;;5677860;25;20010;-82
2024/04/08 14:02:47;;;;;;;6.15;3.05;;;;;;;;;;5674119;25;20010;-82
2024/04/08 14:05:30;;;;;;;7.72;2.67;;;;;;;;;;5675994;25;20031;-83
2024/04/08 14:08:08;;;;;;;10.43;3.78;;;;;;;;;;5648602;25;20002;-83
2024/04/08 14:10:41;;;;;;;5.63;2.80;;;;;;;;;;5678123;25;20002;-82
2024/04/08 14:13:16;;;;;;;6.72;3.35;;;;;;;;;;5675613;25;20001;-84
2024/04/08 14:15:50;;;;;;;10.13;2.90;;;;;;;;;;5626066;26;20330;-83
2024/04/08 14:18:24;;;;;;;6.50;2.90;;;;;;;;;;5647503;26;20369;-83
2024/04/08 14:20:56;;;;;;;5.97;2.55;;;;;;;;;;5674856;25;20013;-83
2024/04/08 14:23:33;;;;;;;;;;;;;;;;;;5602575;26;20011;-84
2024/04/08 14:26:08;;;;;;;4.63;2.63;;;;;;;;;;5627152;26;20371;-83
2024/04/08 14:28:45;;;;;;;23.35;3.88;;;;;;;;;;5614640;26;20010;-82
2024/04/08 14:31:20;;;;;;;11.20;3.25;;;;;;;;;;5598785;26;20011;-84
2024/04/08 14:33:53;;;;;;;6.20;3.03;;;;;;;;;;5616929;26;20308;-81
2024/04/08 14:36:28;;;;;;;5.28;2.70;;;;;;;;;;5577677;26;20032;-80
2024/04/08 14:39:03;;;;;;;5.90;2.83;;;;;;;;;;5622635;26;20001;-81
2024/04/08 14:42:04;;;;;;;6.25;2.90;;;;;;;;;;5618636;26;19995;-81
2024/04/08 14:44:36;;;;;;;6.03;2.60;;;;;;;;;;5622363;26;19994;-80
2024/04/08 14:47:21;;;;;;;8.05;3.05;;;;;;;;;;5610089;26;19995;-81
2024/04/08 14:49:54;;;;;;;6.97;2.55;;;;;;;;;;5624901;26;20014;-81
2024/04/08 14:52:28;;;;;;;8.38;2.80;;;;;;;;;;5602077;26;20085;-80
2024/04/08 14:55:15;;;;;;;6.03;2.53;;;;;;;;;;5618976;26;20003;-81
2024/04/08 14:57:52;;;;;;;8.10;3.65;;;;;;;;;;5615800;26;20324;-81
2024/04/08 15:00:28;;;;;;;6.80;3.50;;;;;;;;;;5645979;26;20006;-79
2024/04/08 15:03:03;;;;;;;5.10;2.85;;;;;;;;;;5630614;26;20003;-80
2024/04/08 15:05:36;;;;;;;5.05;2.65;;;;;;;;;;5614182;26;20022;-79
2024/04/08 15:08:12;;;;;;;7.50;2.95;;;;;;;;;;5620224;26;20015;-83
2024/04/08 15:10:46;;;;;;;5.18;2.60;;;;;;;;;;5628848;26;20050;-80
2024/04/08 15:13:28;;;;;;;6.28;3.00;;;;;;;;;;5639969;26;20015;-78
2024/04/08 15:16:00;;;;;;;6.05;2.80;;;;;;;;;;5645271;26;19998;-80
2024/04/08 15:18:40;;;;;;;8.68;3.00;;;;;;;;;;5627300;26;20000;-81
2024/04/08 15:21:12;;;;;;;6.25;2.88;;;;;;;;;;5632102;26;20490;-81
2024/04/08 15:23:51;;;;;;;5.03;2.92;;;;;;;;;;5616523;26;20015;-82
2024/04/08 15:26:25;;;;;;;6.28;3.13;;;;;;;;;;5657500;26;20010;-80
2024/04/08 15:29:03;;;;;;;6.18;2.78;;;;;;;;;;5642683;26;19995;-80
2024/04/08 15:31:40;;;;;;;4.95;2.60;;;;;;;;;;5652893;26;20011;-81
2024/04/08 15:34:16;;;;;;;5.67;3.43;;;;;;;;;;5640257;26;19992;-80
2024/04/08 15:36:48;;;;;;;7.38;3.20;;;;;;;;;;5631925;26;20015;-80